createdAt,value
2022-08-25T00:01:27.029Z,123.67
2022-08-25T00:03:58.789Z,132.00
2022-08-25T00:06:27.740Z,121.67
2022-08-25T00:08:59.807Z,153.80
2022-08-25T00:11:29.064Z,138.60
2022-08-25T00:14:00.609Z,157.80
2022-08-25T00:16:31.353Z,187.60
2022-08-25T00:19:00.592Z,175.50
2022-08-25T00:21:28.953Z,184.20
2022-08-25T00:24:03.469Z,184.80
2022-08-25T00:26:31.999Z,179.60
2022-08-25T00:29:02.232Z,162.00
2022-08-25T00:31:38.134Z,171.00
2022-08-25T00:34:08.473Z,174.40
2022-08-25T00:36:36.786Z,164.00
2022-08-25T00:39:05.319Z,174.80
2022-08-25T00:41:35.377Z,180.00
2022-08-25T00:44:06.417Z,168.00
2022-08-25T00:46:36.167Z,168.00
2022-08-25T00:49:05.659Z,174.60
2022-08-25T00:51:36.581Z,175.50
2022-08-25T00:54:06.157Z,161.50
2022-08-25T00:56:35.440Z,75.25
2022-08-25T00:59:05.675Z,157.20
2022-08-25T01:01:33.909Z,131.67
2022-08-25T01:04:02.139Z,174.25
2022-08-25T01:06:32.629Z,166.80
2022-08-25T01:09:01.005Z,166.60
2022-08-25T01:11:29.119Z,152.20
2022-08-25T01:13:58.320Z,165.00
2022-08-25T01:16:28.236Z,112.50
2022-08-25T01:18:57.639Z,106.75
2022-08-25T01:21:28.015Z,126.67
2022-08-25T01:23:58.273Z,143.00
2022-08-25T01:26:30.297Z,121.67
2022-08-25T01:29:16.863Z,146.00
2022-08-25T01:31:45.351Z,133.00
2022-08-25T01:34:13.993Z,137.67
2022-08-25T01:36:45.065Z,144.00
2022-08-25T01:39:13.890Z,158.50
2022-08-25T01:41:46.252Z,109.00
2022-08-25T01:44:16.123Z,120.67
2022-08-25T01:46:45.018Z,132.33
2022-08-25T01:49:13.361Z,153.67
2022-08-25T01:51:50.040Z,135.25
2022-08-25T01:54:19.570Z,139.20
2022-08-25T01:56:47.799Z,145.67
2022-08-25T01:59:16.433Z,143.00
2022-08-25T02:01:58.681Z,139.33
2022-08-25T02:04:29.612Z,128.00
2022-08-25T02:06:57.781Z,130.33
2022-08-25T02:09:27.291Z,143.00
2022-08-25T02:11:55.528Z,167.20
2022-08-25T02:14:23.791Z,153.00
2022-08-25T02:16:53.091Z,143.00
2022-08-25T02:19:22.552Z,145.50
2022-08-25T02:21:50.714Z,133.67
2022-08-25T02:24:18.909Z,118.00
2022-08-25T02:26:48.946Z,130.33
2022-08-25T02:29:17.899Z,135.00
2022-08-25T02:31:46.328Z,142.25
2022-08-25T02:34:15.400Z,139.33
2022-08-25T02:36:43.929Z,123.25
2022-08-25T02:39:12.575Z,126.33
2022-08-25T02:41:41.035Z,164.75
2022-08-25T02:44:10.966Z,138.25
2022-08-25T02:46:39.343Z,132.00
2022-08-25T02:49:09.193Z,130.20
2022-08-25T02:51:37.558Z,126.00
2022-08-25T02:54:06.279Z,112.00
2022-08-25T02:56:34.382Z,124.50
2022-08-25T02:59:03.006Z,110.50
2022-08-25T03:01:33.447Z,90.50
2022-08-25T03:04:01.891Z,76.25
2022-08-25T03:06:30.346Z,65.00
2022-08-25T03:08:58.535Z,80.33
2022-08-25T03:11:26.857Z,73.75
2022-08-25T03:13:56.631Z,87.25
2022-08-25T03:16:27.767Z,100.75
2022-08-25T03:18:58.122Z,87.50
2022-08-25T03:21:26.327Z,97.25
2022-08-25T03:23:54.640Z,101.25
2022-08-25T03:26:40.711Z,135.00
2022-08-25T03:29:09.324Z,160.75
2022-08-25T03:31:38.353Z,151.80
2022-08-25T03:34:08.124Z,154.00
2022-08-25T03:36:36.166Z,130.67
2022-08-25T03:39:04.433Z,121.67
2022-08-25T03:41:33.667Z,119.50
2022-08-25T03:44:03.605Z,98.25
2022-08-25T03:46:32.500Z,108.25
2022-08-25T03:49:02.162Z,88.25
2022-08-25T03:51:32.514Z,87.25
2022-08-25T03:54:01.425Z,91.00
2022-08-25T03:56:29.729Z,132.67
2022-08-25T03:58:58.046Z,141.50
2022-08-25T04:01:26.765Z,129.67
2022-08-25T04:03:55.333Z,107.00
2022-08-25T04:06:23.721Z,114.25
2022-08-25T04:08:53.764Z,132.00
2022-08-25T04:11:24.267Z,122.50
2022-08-25T04:13:53.706Z,88.25
2022-08-25T04:16:23.241Z,107.50
2022-08-25T04:18:51.938Z,102.50
2022-08-25T04:21:21.470Z,65.25
2022-08-25T04:23:50.415Z,74.00
2022-08-25T04:26:20.931Z,87.25
2022-08-25T04:28:51.116Z,76.33
2022-08-25T04:31:19.830Z,97.00
2022-08-25T04:33:48.197Z,76.75
2022-08-25T04:36:17.735Z,61.00
2022-08-25T04:38:46.547Z,56.40
2022-08-25T04:41:16.131Z,47.60
2022-08-25T04:43:46.079Z,58.60
2022-08-25T04:46:20.003Z,57.60
2022-08-25T04:48:49.396Z,64.00
2022-08-25T04:51:18.673Z,49.00
2022-08-25T04:53:47.223Z,37.20
2022-08-25T04:56:16.276Z,39.80
2022-08-25T04:58:47.163Z,36.20
2022-08-25T05:01:17.267Z,34.00
2022-08-25T05:03:46.025Z,35.20
2022-08-25T05:06:16.307Z,34.00
2022-08-25T05:08:45.661Z,32.40
2022-08-25T05:11:14.928Z,36.00
2022-08-25T05:13:46.368Z,29.00
2022-08-25T05:16:20.689Z,30.80
2022-08-25T05:18:49.061Z,21.00
2022-08-25T05:21:18.061Z,24.25
2022-08-25T05:23:46.656Z,21.75
2022-08-25T05:26:19.723Z,21.00
2022-08-25T05:28:51.034Z,22.25
2022-08-25T05:31:20.097Z,20.75
2022-08-25T05:33:48.285Z,19.50
2022-08-25T05:36:17.325Z,19.50
2022-08-25T05:38:45.654Z,20.00
2022-08-25T05:41:15.607Z,22.00
2022-08-25T05:43:44.621Z,19.75
2022-08-25T05:46:14.511Z,19.75
2022-08-25T05:48:43.047Z,20.00
2022-08-25T05:51:12.248Z,20.00
2022-08-25T05:53:41.751Z,20.00
2022-08-25T05:56:10.209Z,13.50
2022-08-25T05:58:38.904Z,21.00
2022-08-25T06:01:21.438Z,17.25
2022-08-25T06:03:54.521Z,16.50
2022-08-25T06:06:24.443Z,17.25
2022-08-25T06:08:52.561Z,18.00
2022-08-25T06:11:20.788Z,17.25
2022-08-25T06:13:50.131Z,17.00
2022-08-25T06:16:18.639Z,19.00
2022-08-25T06:18:46.867Z,19.75
2022-08-25T06:21:17.418Z,18.75
2022-08-25T06:23:45.796Z,18.75
2022-08-25T06:26:20.826Z,18.00
2022-08-25T06:28:49.649Z,17.00
2022-08-25T06:31:17.827Z,18.50
2022-08-25T06:33:46.066Z,17.00
2022-08-25T06:36:14.266Z,18.25
2022-08-25T06:38:43.983Z,17.50
2022-08-25T06:41:12.666Z,18.25
2022-08-25T06:43:47.369Z,18.25
2022-08-25T06:46:19.182Z,15.50
2022-08-25T06:48:49.596Z,14.25
2022-08-25T06:51:18.454Z,18.75
2022-08-25T06:53:49.093Z,18.50
2022-08-25T06:56:17.748Z,17.50
2022-08-25T06:58:46.395Z,16.50
2022-08-25T07:01:19.764Z,13.00
2022-08-25T07:03:48.926Z,19.00
2022-08-25T07:06:20.861Z,19.25
2022-08-25T07:08:50.828Z,17.00
2022-08-25T07:11:21.098Z,17.25
2022-08-25T07:13:49.678Z,16.00
2022-08-25T07:16:20.517Z,15.75
2022-08-25T07:18:49.831Z,17.75
2022-08-25T07:21:21.825Z,17.50
2022-08-25T07:23:54.100Z,15.50
2022-08-25T07:26:39.593Z,15.75
2022-08-25T07:29:09.550Z,16.00
2022-08-25T07:31:38.021Z,17.00
2022-08-25T07:34:23.802Z,17.25
2022-08-25T07:36:53.855Z,17.00
2022-08-25T07:39:23.996Z,17.50
2022-08-25T07:41:53.187Z,15.25
2022-08-25T07:44:22.205Z,17.75
2022-08-25T07:46:50.883Z,17.00
2022-08-25T07:49:23.204Z,16.25
2022-08-25T07:52:05.269Z,17.25
2022-08-25T07:54:37.936Z,17.50
2022-08-25T07:57:07.346Z,14.75
2022-08-25T07:59:40.056Z,14.00
2022-08-25T08:02:09.193Z,14.00
2022-08-25T08:04:48.962Z,11.75
2022-08-25T08:07:21.435Z,10.25
2022-08-25T08:10:27.959Z,13.00
2022-08-25T08:12:46.027Z,13.00
2022-08-25T08:15:14.465Z,15.00
2022-08-25T08:17:43.303Z,14.00
2022-08-25T08:20:12.945Z,15.50
2022-08-25T08:22:43.570Z,13.75
2022-08-25T08:25:18.778Z,13.75
2022-08-25T08:27:50.942Z,12.75
2022-08-25T08:30:23.729Z,13.25
2022-08-25T08:33:11.664Z,15.75
2022-08-25T08:35:40.547Z,14.50
2022-08-25T08:38:14.870Z,13.00
2022-08-25T08:41:10.395Z,9.75
2022-08-25T08:43:39.521Z,12.75
2022-08-25T08:46:09.112Z,13.00
2022-08-25T08:48:54.510Z,11.25
2022-08-25T08:51:24.817Z,9.75
2022-08-25T08:53:57.346Z,11.25
2022-08-25T08:56:30.887Z,5.00
2022-08-25T08:59:05.141Z,6.50
2022-08-25T09:01:37.109Z,10.00
2022-08-25T09:04:09.837Z,11.00
2022-08-25T09:06:40.728Z,11.00
2022-08-25T09:09:11.401Z,11.75
2022-08-25T09:11:51.226Z,10.00
2022-08-25T09:14:30.470Z,13.50
2022-08-25T09:17:03.678Z,13.00
2022-08-25T09:19:44.938Z,9.75
2022-08-25T09:22:33.412Z,9.00
2022-08-25T09:25:08.676Z,10.25
2022-08-25T09:27:41.969Z,10.50
2022-08-25T09:30:11.385Z,9.75
2022-08-25T09:32:48.885Z,10.00
2022-08-25T09:35:22.000Z,8.50
2022-08-25T09:38:01.066Z,9.50
2022-08-25T09:40:29.652Z,10.00
2022-08-25T09:43:01.296Z,11.25
2022-08-25T09:45:38.111Z,10.00
2022-08-25T09:48:21.061Z,8.75
2022-08-25T09:50:54.404Z,11.00
2022-08-25T09:53:23.631Z,10.00
2022-08-25T09:55:59.986Z,7.25
2022-08-25T09:58:30.265Z,9.00
2022-08-25T10:01:08.323Z,8.00
2022-08-25T10:03:37.375Z,8.75
2022-08-25T10:06:13.731Z,10.00
2022-08-25T10:08:53.266Z,8.75
2022-08-25T10:11:31.947Z,10.00
2022-08-25T10:14:05.870Z,8.50
2022-08-25T10:16:36.195Z,10.00
2022-08-25T10:19:07.233Z,11.25
2022-08-25T10:21:35.955Z,10.50
2022-08-25T10:24:05.963Z,11.00
2022-08-25T10:26:38.330Z,10.75
2022-08-25T10:29:18.808Z,12.00
2022-08-25T10:31:56.126Z,10.50
2022-08-25T10:34:31.266Z,10.00
2022-08-25T10:37:04.112Z,12.00
2022-08-25T10:39:40.608Z,10.25
2022-08-25T10:42:26.535Z,10.50
2022-08-25T10:45:22.298Z,10.00
2022-08-25T10:47:58.537Z,11.75
2022-08-25T10:50:30.955Z,10.75
2022-08-25T10:53:07.422Z,9.25
2022-08-25T10:55:44.675Z,11.25
2022-08-25T10:58:19.193Z,12.00
2022-08-25T11:00:57.434Z,11.50
2022-08-25T11:03:35.278Z,12.25
2022-08-25T11:06:06.584Z,11.50
2022-08-25T11:08:37.955Z,13.00
2022-08-25T11:11:10.412Z,11.25
2022-08-25T11:13:43.037Z,9.00
2022-08-25T11:16:18.557Z,11.00
2022-08-25T11:18:58.959Z,10.00
2022-08-25T11:21:34.793Z,11.00
2022-08-25T11:24:09.411Z,11.00
2022-08-25T11:26:40.679Z,10.00
2022-08-25T11:29:13.683Z,12.50
2022-08-25T11:31:45.832Z,13.00
2022-08-25T11:34:19.564Z,12.50
2022-08-25T11:36:51.432Z,11.00
2022-08-25T11:39:34.411Z,12.75
2022-08-25T11:42:12.612Z,12.75
2022-08-25T11:44:53.928Z,12.25
2022-08-25T11:47:48.010Z,13.50
2022-08-25T11:50:30.200Z,11.00
2022-08-25T11:53:01.038Z,13.25
2022-08-25T11:55:33.173Z,12.50
2022-08-25T11:58:24.040Z,13.00
2022-08-25T12:00:54.317Z,14.00
2022-08-25T12:03:40.929Z,12.00
2022-08-25T12:06:17.448Z,14.75
2022-08-25T12:08:50.981Z,14.00
2022-08-25T12:11:37.435Z,14.25
2022-08-25T12:14:16.441Z,12.75
2022-08-25T12:16:45.906Z,14.00
2022-08-25T12:19:25.141Z,13.00
2022-08-25T12:21:55.356Z,12.75
2022-08-25T12:24:47.316Z,14.00
2022-08-25T12:27:24.031Z,13.00
2022-08-25T12:29:54.450Z,15.00
2022-08-25T12:32:29.417Z,13.00
2022-08-25T12:35:16.001Z,14.75
2022-08-25T12:37:59.018Z,14.00
2022-08-25T12:40:31.799Z,14.00
2022-08-25T12:43:09.449Z,13.00
2022-08-25T12:45:43.888Z,13.75
2022-08-25T12:48:31.913Z,14.25
2022-08-25T12:51:01.729Z,15.00
2022-08-25T12:53:36.686Z,13.50
2022-08-25T12:56:06.771Z,14.50
2022-08-25T12:58:56.534Z,12.25
2022-08-25T13:01:36.120Z,14.25
2022-08-25T13:04:19.487Z,14.00
2022-08-25T13:07:00.701Z,13.50
2022-08-25T13:09:47.407Z,14.75
2022-08-25T13:12:20.163Z,15.00
2022-08-25T13:14:53.623Z,17.00
2022-08-25T13:17:26.760Z,19.00
2022-08-25T13:20:09.615Z,19.00
2022-08-25T13:22:38.700Z,16.00
2022-08-25T13:25:06.938Z,13.50
2022-08-25T13:27:38.088Z,14.00
2022-08-25T13:30:06.623Z,14.75
2022-08-25T13:32:39.634Z,16.75
2022-08-25T13:35:17.652Z,16.50
2022-08-25T13:37:48.557Z,13.75
2022-08-25T13:40:18.142Z,16.00
2022-08-25T13:42:54.334Z,16.50
2022-08-25T13:45:25.349Z,15.75
2022-08-25T13:48:07.553Z,15.75
2022-08-25T13:50:43.218Z,16.50
2022-08-25T13:53:23.941Z,18.00
2022-08-25T13:55:54.528Z,15.50
2022-08-25T13:58:39.059Z,13.00
2022-08-25T14:01:22.655Z,14.25
2022-08-25T14:04:28.150Z,14.25
2022-08-25T14:07:08.376Z,16.00
2022-08-25T14:09:41.965Z,15.00
2022-08-25T14:12:10.361Z,15.50
2022-08-25T14:14:39.860Z,12.00
2022-08-25T14:17:22.163Z,15.25
2022-08-25T14:19:58.569Z,15.00
2022-08-25T14:22:27.057Z,16.50
2022-08-25T14:24:55.783Z,16.00
2022-08-25T14:27:24.036Z,15.50
2022-08-25T14:29:53.692Z,16.25
2022-08-25T14:32:21.913Z,16.00
2022-08-25T14:34:50.302Z,13.00
2022-08-25T14:37:20.302Z,14.50
2022-08-25T14:39:54.837Z,15.75
2022-08-25T14:42:26.242Z,14.25
2022-08-25T14:44:56.271Z,15.75
2022-08-25T14:47:28.183Z,16.50
2022-08-25T14:49:57.829Z,18.00
2022-08-25T14:52:27.878Z,17.00
2022-08-25T14:54:57.314Z,15.25
2022-08-25T14:57:25.598Z,13.75
2022-08-25T14:59:55.371Z,14.50
2022-08-25T15:02:30.656Z,14.00
2022-08-25T15:05:00.339Z,13.25
2022-08-25T15:07:49.762Z,12.50
2022-08-25T15:10:21.643Z,15.00
2022-08-25T15:12:54.113Z,15.00
2022-08-25T15:15:26.608Z,16.00
2022-08-25T15:17:57.017Z,13.00
2022-08-25T15:20:27.502Z,16.75
2022-08-25T15:22:57.248Z,17.00
2022-08-25T15:25:26.028Z,16.50
2022-08-25T15:27:54.436Z,17.00
2022-08-25T15:30:22.853Z,17.00
2022-08-25T15:33:02.891Z,15.25
2022-08-25T15:35:31.116Z,16.50
2022-08-25T15:37:59.829Z,18.00
2022-08-25T15:40:28.819Z,19.25
2022-08-25T15:42:57.694Z,17.50
2022-08-25T15:45:26.961Z,18.25
2022-08-25T15:47:56.944Z,14.50
2022-08-25T15:50:28.002Z,16.75
2022-08-25T15:52:56.429Z,16.00
2022-08-25T15:55:25.362Z,16.50
2022-08-25T15:57:53.505Z,18.25
2022-08-25T16:00:22.367Z,21.00
2022-08-25T16:02:51.051Z,21.00
2022-08-25T16:05:25.196Z,17.50
2022-08-25T16:07:55.606Z,22.00
2022-08-25T16:10:23.892Z,20.75
2022-08-25T16:12:53.554Z,20.50
2022-08-25T16:15:24.053Z,21.75
2022-08-25T16:17:57.168Z,22.25
2022-08-25T16:20:25.327Z,24.00
2022-08-25T16:22:53.698Z,23.25
2022-08-25T16:25:23.788Z,27.00
2022-08-25T16:27:51.895Z,17.50
2022-08-25T16:30:21.325Z,17.50
2022-08-25T16:32:49.493Z,17.00
2022-08-25T16:35:17.990Z,16.75
2022-08-25T16:37:46.150Z,17.50
2022-08-25T16:40:19.153Z,20.00
2022-08-25T16:42:49.911Z,16.75
2022-08-25T16:45:19.545Z,21.00
2022-08-25T16:47:47.839Z,20.50
2022-08-25T16:50:16.947Z,20.00
2022-08-25T16:53:02.943Z,20.25
2022-08-25T16:55:38.729Z,20.00
2022-08-25T16:58:13.627Z,17.00
2022-08-25T17:00:44.585Z,19.50
2022-08-25T17:03:13.443Z,22.00
2022-08-25T17:05:42.943Z,19.50
2022-08-25T17:08:30.448Z,17.00
2022-08-25T17:11:06.956Z,20.00
2022-08-25T17:13:37.261Z,22.50
2022-08-25T17:16:05.705Z,21.25
2022-08-25T17:18:34.377Z,20.50
2022-08-25T17:21:04.109Z,22.25
2022-08-25T17:23:32.717Z,23.00
2022-08-25T17:26:02.813Z,66.25
2022-08-25T17:28:33.713Z,75.75
2022-08-25T17:31:03.392Z,80.33
2022-08-25T17:33:31.766Z,76.25
2022-08-25T17:36:01.668Z,71.25
2022-08-25T17:38:33.836Z,63.00
2022-08-25T17:41:03.395Z,28.60
2022-08-25T17:43:34.872Z,26.50
2022-08-25T17:46:07.751Z,25.50
2022-08-25T17:48:36.777Z,27.50
2022-08-25T17:51:06.447Z,27.00
2022-08-25T17:53:36.109Z,29.00
2022-08-25T17:56:06.576Z,41.60
2022-08-25T17:58:35.232Z,75.33
2022-08-25T18:01:06.510Z,63.50
2022-08-25T18:03:36.374Z,64.40
2022-08-25T18:06:05.794Z,45.00
2022-08-25T18:08:35.319Z,38.80
2022-08-25T18:11:04.807Z,36.80
2022-08-25T18:13:33.211Z,32.00
2022-08-25T18:16:01.546Z,32.00
2022-08-25T18:18:44.272Z,32.00
2022-08-25T18:21:13.689Z,30.60
2022-08-25T18:23:42.522Z,32.80
2022-08-25T18:26:12.902Z,31.80
2022-08-25T18:28:43.957Z,23.20
2022-08-25T18:31:13.389Z,30.00
2022-08-25T18:33:45.051Z,25.20
2022-08-25T18:36:13.988Z,24.60
2022-08-25T18:39:00.329Z,28.00
2022-08-25T18:41:34.098Z,24.00
2022-08-25T18:44:02.370Z,23.75
2022-08-25T18:46:30.578Z,21.75
2022-08-25T18:49:00.788Z,27.00
2022-08-25T18:51:28.985Z,22.50
2022-08-25T18:54:01.559Z,25.00
2022-08-25T18:56:30.026Z,27.00
2022-08-25T18:59:01.358Z,26.60
2022-08-25T19:01:31.409Z,25.20
2022-08-25T19:04:02.162Z,29.00
2022-08-25T19:06:45.567Z,38.40
2022-08-25T19:09:15.285Z,29.80
2022-08-25T19:11:44.399Z,36.00
2022-08-25T19:14:43.187Z,35.00
2022-08-25T19:17:15.050Z,65.00
2022-08-25T19:19:44.856Z,57.60
2022-08-25T19:22:31.789Z,59.60
2022-08-25T19:25:01.902Z,71.75
2022-08-25T19:27:31.016Z,71.75
2022-08-25T19:29:59.884Z,71.75
2022-08-25T19:32:28.322Z,76.50
2022-08-25T19:34:58.536Z,84.33
2022-08-25T19:37:27.729Z,99.75
2022-08-25T19:39:57.346Z,78.25
2022-08-25T19:42:36.861Z,92.75
2022-08-25T19:45:07.477Z,93.75
2022-08-25T19:47:37.677Z,98.50
2022-08-25T19:50:07.720Z,110.75
2022-08-25T19:52:36.921Z,129.67
2022-08-25T19:55:05.426Z,160.00
2022-08-25T19:57:42.526Z,149.20
2022-08-25T20:00:14.509Z,149.50
2022-08-25T20:02:43.593Z,154.25
2022-08-25T20:05:13.524Z,131.67
2022-08-25T20:07:42.064Z,148.00
2022-08-25T20:10:13.965Z,146.00
2022-08-25T20:12:45.243Z,147.75
2022-08-25T20:15:14.733Z,139.67
2022-08-25T20:17:45.180Z,144.00
2022-08-25T20:20:15.605Z,142.50
2022-08-25T20:22:44.794Z,152.00
2022-08-25T20:25:14.024Z,155.00
2022-08-25T20:27:43.363Z,153.60
2022-08-25T20:30:14.351Z,165.80
2022-08-25T20:32:45.847Z,246.17
2022-08-25T20:35:16.493Z,181.75
2022-08-25T20:37:45.266Z,188.33
2022-08-25T20:40:16.755Z,214.00
2022-08-25T20:42:45.487Z,199.83
2022-08-25T20:45:14.218Z,213.33
2022-08-25T20:47:44.368Z,218.00
2022-08-25T20:50:12.898Z,193.20
2022-08-25T20:52:44.638Z,171.67
2022-08-25T20:55:13.025Z,235.67
2022-08-25T20:57:41.108Z,211.50
2022-08-25T21:00:09.869Z,227.00
2022-08-25T21:02:38.151Z,237.67
2022-08-25T21:05:07.507Z,181.20
2022-08-25T21:07:36.771Z,190.80
2022-08-25T21:10:10.420Z,192.67
2022-08-25T21:12:42.218Z,182.20
2022-08-25T21:15:11.710Z,153.00
2022-08-25T21:17:40.261Z,97.00
2022-08-25T21:20:09.456Z,163.25
2022-08-25T21:22:38.083Z,118.25
2022-08-25T21:25:09.623Z,201.40
2022-08-25T21:27:39.515Z,224.00
2022-08-25T21:30:08.691Z,234.40
2022-08-25T21:32:37.434Z,245.17
2022-08-25T21:35:06.981Z,217.20
2022-08-25T21:37:36.055Z,233.33
2022-08-25T21:40:07.036Z,206.83
2022-08-25T21:42:39.643Z,177.60
2022-08-25T21:45:11.357Z,166.60
2022-08-25T21:47:42.720Z,208.00
2022-08-25T21:50:11.174Z,117.50
2022-08-25T21:52:39.262Z,99.25
2022-08-25T21:55:15.729Z,125.40
2022-08-25T21:57:45.945Z,143.50
2022-08-25T22:00:14.958Z,112.50
2022-08-25T22:02:45.945Z,131.00
2022-08-25T22:05:14.202Z,81.25
2022-08-25T22:07:44.048Z,92.50
2022-08-25T22:10:17.729Z,73.25
2022-08-25T22:12:48.366Z,94.50
2022-08-25T22:15:17.992Z,76.00
2022-08-25T22:17:48.017Z,145.20
2022-08-25T22:20:17.433Z,96.50
2022-08-25T22:22:47.492Z,120.33
2022-08-25T22:25:15.770Z,87.00
2022-08-25T22:27:44.658Z,92.50
2022-08-25T22:30:16.209Z,95.75
2022-08-25T22:32:45.610Z,101.00
2022-08-25T22:35:13.883Z,101.50
2022-08-25T22:37:42.022Z,185.20
2022-08-25T22:40:11.423Z,167.50
2022-08-25T22:42:39.488Z,130.50
2022-08-25T22:45:09.141Z,117.00
2022-08-25T22:47:39.027Z,74.50
2022-08-25T22:50:09.845Z,90.50
2022-08-25T22:52:42.229Z,77.00
2022-08-25T22:55:11.880Z,68.50
2022-08-25T22:57:40.348Z,85.50
2022-08-25T23:00:10.380Z,76.25
2022-08-25T23:02:39.975Z,80.00
2022-08-25T23:05:08.629Z,71.00
2022-08-25T23:07:36.934Z,86.75
2022-08-25T23:10:08.069Z,75.33
2022-08-25T23:12:36.509Z,75.67
2022-08-25T23:15:05.604Z,114.50
2022-08-25T23:17:33.695Z,137.33
2022-08-25T23:20:24.838Z,171.75
2022-08-25T23:22:53.598Z,161.75
2022-08-25T23:25:22.315Z,177.20
2022-08-25T23:27:50.496Z,163.00
2022-08-25T23:30:20.193Z,84.75
2022-08-25T23:32:50.502Z,195.80
2022-08-25T23:35:20.109Z,136.00
2022-08-25T23:37:48.216Z,116.00
2022-08-25T23:40:19.552Z,142.25
2022-08-25T23:42:49.165Z,155.40
2022-08-25T23:45:17.443Z,117.25
2022-08-25T23:47:45.666Z,152.20
2022-08-25T23:50:14.205Z,141.00
2022-08-25T23:52:44.780Z,185.60
2022-08-25T23:55:12.940Z,136.33
2022-08-25T23:57:41.169Z,123.00
